Time;durP1;ratioP1;P1;durP2;ratioP2;P2;SDS_P1;SDS_P2;PMS_P1;PMS_P2;Temp;Humidity;BMP_temperature;BMP_pressure;BME280_temperature;BME280_humidity;BME280_pressure;Samples;Min_cycle;Max_cycle;Signal;HPM_P1;HPM_P2
2022/12/27 00:00:31;;;;;;;6.40;2.30;;;;;1.80;94713.00;;;;7397723;19;20203;-75
2022/12/27 00:02:59;;;;;;;6.07;2.00;;;;;1.80;94720.00;;;;7397474;19;20174;-76
2022/12/27 00:05:26;;;;;;;3.63;1.67;;;;;1.80;94730.00;;;;7399162;19;20159;-75
2022/12/27 00:08:00;;;;;;;6.57;1.80;;;;;1.80;94731.00;;;;7398958;19;20184;-75
2022/12/27 00:10:28;;;;;;;3.80;1.70;;;;;1.70;94736.00;;;;7399605;19;20137;-74
2022/12/27 00:12:55;;;;;;;1.63;1.30;;;;;1.50;94756.00;;;;7398030;19;20256;-75
2022/12/27 00:15:31;;;;;;;3.67;1.70;;;;;1.40;94745.00;;;;7398219;19;20549;-75
2022/12/27 00:17:59;;;;;;;3.13;1.53;;;;;1.30;94743.00;;;;7398262;19;20148;-74
2022/12/27 00:20:26;;;;;;;4.47;1.63;;;;;1.20;94743.00;;;;7397944;19;20133;-75
2022/12/27 00:23:01;;;;;;;7.03;1.47;;;;;1.20;94737.00;;;;7397977;19;20156;-76
2022/12/27 00:25:28;;;;;;;5.10;1.50;;;;;1.20;94751.00;;;;7397129;19;20125;-75
2022/12/27 00:27:59;;;;;;;6.17;1.87;;;;;1.20;94738.00;;;;7397000;19;20514;-75
2022/12/27 00:30:33;;;;;;;7.00;1.97;;;;;1.10;94740.00;;;;7398444;19;20189;-75
2022/12/27 00:33:02;;;;;;;2.37;1.70;;;;;1.20;94740.00;;;;7396022;19;20546;-75
2022/12/27 00:35:29;;;;;;;5.93;2.23;;;;;1.20;94747.00;;;;7395533;19;20149;-75
2022/12/27 00:38:03;;;;;;;2.10;1.70;;;;;1.10;94731.00;;;;7397033;19;20133;-74
2022/12/27 00:40:37;;;;;;;4.03;1.80;;;;;1.00;94736.00;;;;7396951;19;20148;-74
2022/12/27 00:43:04;;;;;;;6.53;1.73;;;;;1.00;94747.00;;;;7396636;19;20133;-74
2022/12/27 00:45:38;;;;;;;4.77;2.13;;;;;0.90;94755.00;;;;7395781;19;20492;-74
2022/12/27 00:48:06;;;;;;;5.00;2.10;;;;;0.90;94759.00;;;;7399454;19;20128;-74
2022/12/27 00:50:33;;;;;;;8.37;2.10;;;;;0.90;94769.00;;;;7394625;19;20155;-74
2022/12/27 00:53:08;;;;;;;3.73;2.10;;;;;1.00;94771.00;;;;7396380;19;20148;-74
2022/12/27 00:55:36;;;;;;;3.73;2.07;;;;;0.90;94775.00;;;;7396818;19;20488;-74
2022/12/27 00:58:03;;;;;;;8.13;2.23;;;;;0.80;94781.00;;;;7399379;19;20225;-74
2022/12/27 01:00:39;;;;;;;6.47;2.30;;;;;0.90;94777.00;;;;7396858;19;20139;-74
2022/12/27 01:03:06;;;;;;;4.53;2.77;;;;;0.80;94779.00;;;;7398114;19;20129;-75
2022/12/27 01:05:36;;;;;;;4.47;2.00;;;;;0.70;94790.00;;;;7395572;19;20640;-74
2022/12/27 01:08:11;;;;;;;3.67;1.97;;;;;0.80;94780.00;;;;7395535;19;20201;-74
2022/12/27 01:10:41;;;;;;;4.33;1.77;;;;;0.80;94789.00;;;;7397021;19;20524;-75
2022/12/27 01:13:09;;;;;;;5.33;1.90;;;;;0.50;94785.00;;;;7396027;19;20622;-75
2022/12/27 01:15:42;;;;;;;8.40;2.10;;;;;0.50;94781.00;;;;7396610;19;20156;-74
2022/12/27 01:18:10;;;;;;;4.17;2.10;;;;;0.50;94787.00;;;;7396899;19;20161;-75
2022/12/27 01:20:37;;;;;;;6.83;1.50;;;;;0.50;94796.00;;;;7395518;19;20664;-74
2022/12/27 01:23:11;;;;;;;5.03;1.80;;;;;0.60;94795.00;;;;7394819;19;20177;-74
2022/12/27 01:25:39;;;;;;;5.20;1.70;;;;;0.50;94789.00;;;;7393999;19;20695;-74
2022/12/27 01:28:06;;;;;;;2.63;1.50;;;;;0.40;94797.00;;;;7396666;19;20688;-74
2022/12/27 01:30:40;;;;;;;3.17;1.53;;;;;0.30;94796.00;;;;7396773;19;20133;-74
2022/12/27 01:33:08;;;;;;;3.67;1.80;;;;;0.30;94802.00;;;;7391494;19;20187;-74
2022/12/27 01:35:35;;;;;;;4.13;1.87;;;;;0.40;94805.00;;;;7393630;19;20224;-74
2022/12/27 01:38:09;;;;;;;5.87;1.80;;;;;0.30;94802.00;;;;7396081;19;20606;-74
2022/12/27 01:40:41;;;;;;;2.77;2.07;;;;;0.30;94806.00;;;;7394261;19;20188;-74
2022/12/27 01:43:16;;;;;;;3.03;1.90;;;;;0.30;94807.00;;;;7395584;19;20654;-73
2022/12/27 01:45:50;;;;;;;5.97;2.13;;;;;0.40;94823.00;;;;7392933;19;20615;-74
2022/12/27 01:48:22;;;;;;;4.50;2.27;;;;;0.30;94813.00;;;;7396751;19;20130;-74
2022/12/27 01:51:03;;;;;;;4.10;2.30;;;;;0.40;94820.00;;;;7395186;19;20607;-74
2022/12/27 01:53:40;;;;;;;8.23;2.23;;;;;0.30;94826.00;;;;7398558;19;20579;-74
2022/12/27 01:56:14;;;;;;;5.43;2.40;;;;;0.30;94819.00;;;;7404566;19;20132;-74
2022/12/27 01:58:56;;;;;;;5.27;2.20;;;;;0.20;94831.00;;;;7402028;19;20152;-74
2022/12/27 02:01:28;;;;;;;4.10;2.30;;;;;0.30;94838.00;;;;7401311;19;20155;-74
2022/12/27 02:04:17;;;;;;;4.53;2.20;;;;;0.20;94830.00;;;;7402741;19;20124;-74
2022/12/27 02:06:46;;;;;;;3.37;2.23;;;;;0.20;94836.00;;;;7401569;19;20184;-74
2022/12/27 02:09:32;;;;;;;5.37;2.10;;;;;0.20;94838.00;;;;7402241;19;20224;-74
2022/12/27 02:12:00;;;;;;;11.80;2.73;;;;;0.30;94837.00;;;;7400737;19;20149;-75
2022/12/27 02:14:38;;;;;;;5.93;2.27;;;;;0.10;94840.00;;;;7400214;19;20638;-74
2022/12/27 02:17:15;;;;;;;7.43;2.60;;;;;0.10;94843.00;;;;7400953;19;20615;-74
2022/12/27 02:20:09;;;;;;;12.53;2.77;;;;;0.10;94839.00;;;;7402046;19;20163;-75
2022/12/27 02:26:45;;;;;;;5.73;2.63;;;;;0.20;94837.00;;;;7398625;19;20173;-74
2022/12/27 02:29:26;;;;;;;8.00;3.30;;;;;0.30;94841.00;;;;7401233;19;20516;-74
2022/12/27 02:32:29;;;;;;;10.10;3.40;;;;;0.20;94850.00;;;;7400525;19;20148;-74
2022/12/27 02:35:29;;;;;;;5.03;2.80;;;;;0.20;94846.00;;;;7397209;19;20179;-73
2022/12/27 02:38:18;;;;;;;4.07;2.93;;;;;0.10;94849.00;;;;7400729;19;20185;-74
2022/12/27 02:55:40;;;;;;;4.00;2.27;;;;;-0.10;94856.00;;;;7401229;19;20180;-73
2022/12/27 02:58:33;;;;;;;4.27;2.53;;;;;-0.10;94859.00;;;;7401553;19;20219;-74
2022/12/27 03:04:39;;;;;;;6.97;2.23;;;;;-0.20;94873.00;;;;7398486;19;20148;-74
2022/12/27 03:07:46;;;;;;;6.47;2.60;;;;;-0.20;94863.00;;;;7401382;19;20141;-74
2022/12/27 03:16:56;;;;;;;7.43;2.20;;;;;-0.20;94854.00;;;;7400716;19;20144;-73
2022/12/27 03:25:29;;;;;;;9.30;2.30;;;;;-0.40;94860.00;;;;7400150;19;20149;-73
2022/12/27 03:34:30;;;;;;;6.77;2.63;;;;;-0.50;94864.00;;;;7397058;19;20563;-73
2022/12/27 03:40:14;;;;;;;4.23;2.20;;;;;-0.30;94870.00;;;;7397583;19;20160;-74
2022/12/27 03:43:10;;;;;;;7.43;2.53;;;;;-0.30;94873.00;;;;7399572;19;20153;-73
2022/12/27 03:49:09;;;;;;;5.73;2.23;;;;;-0.20;94881.00;;;;7398651;19;20491;-73
2022/12/27 03:52:03;;;;;;;5.93;2.63;;;;;-0.30;94875.00;;;;7398497;19;20470;-74
2022/12/27 03:54:40;;;;;;;9.90;2.60;;;;;-0.20;94879.00;;;;7399469;19;20145;-73
2022/12/27 03:57:11;;;;;;;12.07;3.17;;;;;-0.30;94889.00;;;;7396025;19;20517;-74
2022/12/27 03:59:48;;;;;;;8.53;2.63;;;;;-0.30;94878.00;;;;7399404;19;20156;-74
2022/12/27 04:02:16;;;;;;;5.83;2.23;;;;;-0.30;94885.00;;;;7394723;19;20171;-73
2022/12/27 04:04:44;;;;;;;9.17;2.80;;;;;-0.20;94886.00;;;;7399321;19;20460;-73
2022/12/27 04:07:18;;;;;;;7.43;2.63;;;;;-0.30;94892.00;;;;7399607;19;20750;-73
2022/12/27 04:35:22;;;;;;;8.17;2.33;;;;;-0.30;94876.00;;;;7398413;19;20587;-74
2022/12/27 04:37:49;;;;;;;4.80;2.40;;;;;-0.40;94872.00;;;;7394863;19;20631;-73
2022/12/27 04:57:17;;;;;;;6.93;2.10;;;;;-0.20;94869.00;;;;7397257;19;20186;-73
2022/12/27 05:02:38;;;;;;;6.87;1.70;;;;;-0.20;94875.00;;;;7396927;19;20626;-74
2022/12/27 05:05:08;;;;;;;8.43;2.10;;;;;-0.20;94876.00;;;;7395007;19;20188;-74
2022/12/27 05:16:14;;;;;;;5.00;2.07;;;;;-0.30;94887.00;;;;7395968;19;20160;-74
2022/12/27 05:18:42;;;;;;;5.93;1.80;;;;;-0.30;94886.00;;;;7396046;19;20162;-74
2022/12/27 05:21:17;;;;;;;7.20;1.87;;;;;-0.30;94882.00;;;;7397178;19;20146;-73
2022/12/27 05:26:39;;;;;;;6.13;2.07;;;;;-0.50;94893.00;;;;7394760;19;20156;-71
2022/12/27 05:29:07;;;;;;;5.40;1.70;;;;;-0.60;94900.00;;;;7399088;19;20156;-71
2022/12/27 05:31:35;;;;;;;4.17;1.70;;;;;-0.70;94899.00;;;;7401048;19;20204;-71
2022/12/27 05:34:36;;;;;;;4.40;1.63;;;;;-0.60;94906.00;;;;7404125;19;20505;-73
2022/12/27 05:37:10;;;;;;;5.27;1.77;;;;;-0.60;94896.00;;;;7403016;19;20141;-74
2022/12/27 05:39:45;;;;;;;6.53;1.33;;;;;-0.50;94899.00;;;;7405169;19;20121;-72
2022/12/27 05:42:14;;;;;;;5.33;1.87;;;;;-0.40;94895.00;;;;7403532;19;20619;-71
2022/12/27 05:44:41;;;;;;;4.30;1.23;;;;;-0.50;94898.00;;;;7404576;19;20229;-73
2022/12/27 05:47:15;;;;;;;5.07;1.57;;;;;-0.60;94899.00;;;;7398949;19;20499;-73
2022/12/27 05:49:43;;;;;;;13.43;1.97;;;;;-0.60;94896.00;;;;7404769;19;20156;-72
2022/12/27 05:52:11;;;;;;;5.77;1.67;;;;;-0.70;94904.00;;;;7398476;19;20180;-73
2022/12/27 05:54:45;;;;;;;3.23;1.40;;;;;-0.80;94905.00;;;;7401992;19;20226;-72
2022/12/27 05:57:12;;;;;;;6.13;1.63;;;;;-0.70;94903.00;;;;7402978;19;20168;-72
2022/12/27 05:59:39;;;;;;;4.53;1.43;;;;;-0.90;94920.00;;;;7400505;19;20156;-74
2022/12/27 06:02:14;;;;;;;3.87;1.43;;;;;-0.90;94913.00;;;;7400691;19;20600;-72
2022/12/27 06:04:41;;;;;;;6.67;1.40;;;;;-0.90;94918.00;;;;7401250;19;20643;-74
2022/12/27 06:07:10;;;;;;;4.40;1.53;;;;;-0.90;94922.00;;;;7400797;19;20505;-72
2022/12/27 06:09:43;;;;;;;3.47;1.50;;;;;-1.00;94926.00;;;;7402645;19;20181;-73
2022/12/27 06:12:11;;;;;;;9.30;2.07;;;;;-1.00;94924.00;;;;7403710;19;20658;-73
2022/12/27 06:14:40;;;;;;;6.07;1.80;;;;;-1.00;94926.00;;;;7401967;19;20196;-74
2022/12/27 06:17:15;;;;;;;3.90;1.53;;;;;-1.20;94920.00;;;;7401729;19;20129;-73
2022/12/27 06:19:43;;;;;;;5.97;1.73;;;;;-1.30;94921.00;;;;7397963;19;20155;-74
2022/12/27 06:22:10;;;;;;;3.33;1.33;;;;;-1.30;94914.00;;;;7403339;19;20173;-74
2022/12/27 06:24:44;;;;;;;6.30;1.40;;;;;-1.40;94919.00;;;;7401707;19;20152;-74
2022/12/27 06:27:13;;;;;;;5.60;1.50;;;;;-1.20;94916.00;;;;7399606;19;20718;-73
2022/12/27 06:29:41;;;;;;;7.47;1.70;;;;;-1.30;94922.00;;;;7401805;19;20523;-73
2022/12/27 06:32:16;;;;;;;1.77;1.27;;;;;-1.50;94927.00;;;;7399821;19;20157;-74
2022/12/27 06:34:51;;;;;;;7.00;1.60;;;;;-1.70;94931.00;;;;7399023;19;20183;-74
2022/12/27 06:37:32;;;;;;;4.53;1.13;;;;;-1.80;94931.00;;;;7400744;19;20129;-74
2022/12/27 06:40:00;;;;;;;3.17;0.93;;;;;-1.80;94928.00;;;;7399275;19;20163;-73
2022/12/27 06:42:34;;;;;;;4.20;1.40;;;;;-1.80;94938.00;;;;7402179;19;20615;-73
2022/12/27 06:45:01;;;;;;;3.07;1.57;;;;;-1.60;94938.00;;;;7401045;19;20624;-73
2022/12/27 06:47:29;;;;;;;5.97;1.40;;;;;-1.60;94939.00;;;;7399877;19;20505;-73
2022/12/27 06:50:04;;;;;;;5.23;1.37;;;;;-1.70;94954.00;;;;7401400;19;20211;-74
2022/12/27 06:52:32;;;;;;;8.10;1.90;;;;;-1.80;94952.00;;;;7403690;19;20133;-75
2022/12/27 06:55:07;;;;;;;2.63;1.30;;;;;-1.80;94937.00;;;;7400425;19;20129;-73
2022/12/27 06:57:42;;;;;;;6.60;1.47;;;;;-1.70;94946.00;;;;7401118;19;20566;-74
2022/12/27 07:00:12;;;;;;;4.77;1.50;;;;;-1.50;94935.00;;;;7403253;19;20220;-74
2022/12/27 07:02:43;;;;;;;2.73;1.23;;;;;-1.60;94940.00;;;;7401535;19;20140;-73
2022/12/27 07:05:17;;;;;;;7.53;1.53;;;;;-1.50;94942.00;;;;7402776;19;20145;-72
2022/12/27 07:07:45;;;;;;;4.23;1.33;;;;;-1.50;94946.00;;;;7402505;19;20132;-73
2022/12/27 07:10:12;;;;;;;5.53;1.30;;;;;-1.50;94954.00;;;;7401788;19;20160;-74
2022/12/27 07:12:48;;;;;;;3.37;1.20;;;;;-1.30;94940.00;;;;7403786;19;20196;-73
2022/12/27 07:15:16;;;;;;;3.10;1.40;;;;;-1.40;94956.00;;;;7405414;19;20224;-72
2022/12/27 07:17:57;;;;;;;3.07;1.30;;;;;-1.40;94960.00;;;;7406641;19;20204;-73
2022/12/27 07:20:32;;;;;;;4.23;1.57;;;;;-1.40;94959.00;;;;7405408;19;20541;-73
2022/12/27 07:22:59;;;;;;;5.70;1.67;;;;;-1.40;94955.00;;;;7404480;19;20181;-73
2022/12/27 07:25:27;;;;;;;5.63;1.50;;;;;-1.40;94950.00;;;;7403350;19;20164;-74
2022/12/27 07:28:01;;;;;;;6.47;2.20;;;;;-1.40;94953.00;;;;7404121;19;20694;-73
2022/12/27 07:30:28;;;;;;;5.70;1.40;;;;;-1.30;94959.00;;;;7402210;19;20160;-74
2022/12/27 07:32:58;;;;;;;5.83;1.37;;;;;-1.40;94954.00;;;;7400141;19;20172;-73
2022/12/27 07:35:45;;;;;;;5.40;1.67;;;;;-1.30;94973.00;;;;7402535;19;20175;-73
2022/12/27 07:38:20;;;;;;;5.37;2.20;;;;;-1.20;94964.00;;;;7401689;19;20155;-72
2022/12/27 07:40:57;;;;;;;15.47;4.10;;;;;-1.10;94976.00;;;;7400172;19;20216;-74
2022/12/27 07:43:25;;;;;;;12.10;3.97;;;;;-1.10;94973.00;;;;7402542;19;20136;-72
2022/12/27 07:45:53;;;;;;;5.80;2.17;;;;;-1.00;94977.00;;;;7399531;19;20208;-73
2022/12/27 07:48:28;;;;;;;4.53;2.17;;;;;-1.00;94978.00;;;;7400626;19;20140;-73
2022/12/27 07:50:56;;;;;;;5.17;1.80;;;;;-0.90;94985.00;;;;7400316;19;20775;-73
2022/12/27 07:53:24;;;;;;;4.73;2.60;;;;;-0.80;94983.00;;;;7402493;19;20133;-73
2022/12/27 07:56:25;;;;;;;3.97;3.23;;;;;-0.80;94979.00;;;;7393996;19;20576;-73
2022/12/27 07:59:00;;;;;;;3.27;2.00;;;;;-0.60;94977.00;;;;7394295;19;20128;-74
2022/12/27 08:04:27;;;;;;;3.10;1.60;;;;;-0.30;94983.00;;;;7397471;19;20128;-72
2022/12/27 08:07:11;;;;;;;5.33;1.53;;;;;-0.20;94970.00;;;;7399372;19;20144;-73
2022/12/27 08:09:40;;;;;;;2.50;1.60;;;;;0.00;94976.00;;;;7395128;19;20622;-71
2022/12/27 08:12:15;;;;;;;4.23;1.87;;;;;0.20;94972.00;;;;7397354;19;20156;-73
2022/12/27 08:14:45;;;;;;;4.93;1.70;;;;;0.30;94978.00;;;;7396675;19;20525;-73
2022/12/27 08:17:25;;;;;;;5.87;2.27;;;;;0.50;94965.00;;;;7399493;19;20635;-72
2022/12/27 08:20:01;;;;;;;6.67;1.60;;;;;0.90;94975.00;;;;7398622;19;20153;-73
2022/12/27 08:22:29;;;;;;;6.33;1.57;;;;;0.80;94970.00;;;;7398115;19;20141;-74
2022/12/27 08:24:57;;;;;;;7.10;2.47;;;;;1.10;94974.00;;;;7400433;19;20599;-74
2022/12/27 08:27:31;;;;;;;5.07;1.90;;;;;1.50;94977.00;;;;7394285;19;20156;-76
2022/12/27 08:29:58;;;;;;;5.47;1.90;;;;;1.80;94964.00;;;;7386322;19;20192;-74
2022/12/27 08:32:26;;;;;;;4.30;1.60;;;;;2.00;94969.00;;;;7394436;19;20180;-73
2022/12/27 08:35:14;;;;;;;4.90;1.70;;;;;2.30;94971.00;;;;7396140;19;20168;-74
2022/12/27 08:38:09;;;;;;;4.17;1.80;;;;;2.50;94972.00;;;;7395380;19;20189;-74
2022/12/27 08:40:44;;;;;;;5.30;1.60;;;;;2.60;94978.00;;;;7396560;19;20496;-75
2022/12/27 08:43:13;;;;;;;5.73;2.33;;;;;2.90;94989.00;;;;7394724;19;20623;-75
2022/12/27 08:45:41;;;;;;;3.83;1.70;;;;;3.30;94985.00;;;;7393210;19;20829;-73
2022/12/27 08:48:15;;;;;;;6.67;1.80;;;;;3.50;94987.00;;;;7390437;19;20152;-75
2022/12/27 08:50:42;;;;;;;5.93;2.13;;;;;3.60;94991.00;;;;7391661;19;20148;-74
2022/12/27 08:53:10;;;;;;;3.33;1.20;;;;;3.90;94992.00;;;;7392644;19;20161;-76
2022/12/27 08:55:46;;;;;;;5.37;1.40;;;;;4.20;94988.00;;;;7392733;19;20132;-74
2022/12/27 08:58:13;;;;;;;2.43;1.13;;;;;4.00;94999.00;;;;7390136;19;20841;-73
2022/12/27 09:00:43;;;;;;;3.90;1.47;;;;;3.80;94990.00;;;;7392442;19;20125;-74
2022/12/27 09:03:19;;;;;;;2.63;1.03;;;;;4.50;94996.00;;;;7389957;19;20161;-73
2022/12/27 09:05:49;;;;;;;7.77;1.17;;;;;5.10;94990.00;;;;7390837;19;20156;-74
2022/12/27 09:08:23;;;;;;;1.80;1.00;;;;;5.00;94982.00;;;;7391370;19;20133;-72
2022/12/27 09:10:51;;;;;;;4.90;1.03;;;;;5.10;94983.00;;;;7392727;19;20487;-73
2022/12/27 09:13:18;;;;;;;3.07;0.90;;;;;5.50;94991.00;;;;7389567;19;20160;-73
2022/12/27 09:15:54;;;;;;;2.77;0.80;;;;;5.60;94978.00;;;;7389276;19;20646;-72
2022/12/27 09:18:24;;;;;;;5.67;1.10;;;;;6.00;94983.00;;;;7389385;19;20228;-73
2022/12/27 09:20:52;;;;;;;1.87;0.83;;;;;5.80;94990.00;;;;7389991;19;20148;-72
2022/12/27 09:23:26;;;;;;;3.77;1.10;;;;;5.60;94997.00;;;;7388963;19;20128;-71
2022/12/27 09:25:55;;;;;;;3.37;0.90;;;;;5.60;94990.00;;;;7391965;19;20133;-72
2022/12/27 09:28:33;;;;;;;4.77;0.93;;;;;5.70;94989.00;;;;7385264;19;20172;-71
2022/12/27 09:31:09;;;;;;;5.87;1.20;;;;;5.70;94992.00;;;;7390575;19;20163;-72
2022/12/27 09:33:38;;;;;;;2.27;0.90;;;;;5.70;94992.00;;;;7391851;19;20173;-72
2022/12/27 09:36:09;;;;;;;5.10;1.60;;;;;5.50;94997.00;;;;7390157;19;20635;-75
2022/12/27 09:38:46;;;;;;;4.83;1.07;;;;;5.90;94987.00;;;;7388107;19;20156;-72
2022/12/27 09:41:38;;;;;;;2.73;1.13;;;;;5.30;94986.00;;;;7392344;19;20133;-73
2022/12/27 09:45:04;;;;;;;3.63;1.10;;;;;5.90;94986.00;;;;7389764;19;20157;-73
2022/12/27 09:47:55;;;;;;;2.53;0.97;;;;;6.10;94980.00;;;;7390378;19;20133;-73
2022/12/27 09:50:48;;;;;;;4.93;0.87;;;;;5.90;94991.00;;;;7391728;19;20488;-73
2022/12/27 09:53:36;;;;;;;2.43;0.80;;;;;6.10;94990.00;;;;7392346;19;20163;-73
2022/12/27 09:56:24;;;;;;;2.67;0.80;;;;;5.70;94991.00;;;;7392538;19;20145;-74
2022/12/27 09:59:31;;;;;;;3.13;0.93;;;;;6.20;94988.00;;;;7391506;19;20509;-73
2022/12/27 10:02:38;;;;;;;3.73;0.93;;;;;6.10;94988.00;;;;7392335;19;20144;-73
2022/12/27 10:05:20;;;;;;;1.17;0.90;;;;;6.30;94988.00;;;;7391429;19;20584;-73
2022/12/27 10:08:13;;;;;;;3.63;0.90;;;;;5.40;94989.00;;;;7391854;19;20161;-73
2022/12/27 10:11:05;;;;;;;2.47;0.77;;;;;5.70;94983.00;;;;7392711;19;20631;-73
2022/12/27 10:13:56;;;;;;;2.00;1.23;;;;;5.90;94975.00;;;;7391375;19;20631;-76
2022/12/27 10:16:39;;;;;;;3.03;0.93;;;;;6.70;94983.00;;;;7398269;19;20152;-74
2022/12/27 10:19:42;;;;;;;2.70;0.90;;;;;6.50;94973.00;;;;7398602;19;20164;-74
2022/12/27 10:22:32;;;;;;;5.03;1.83;;;;;6.40;94974.00;;;;7398505;19;20497;-73
2022/12/27 10:25:12;;;;;;;1.93;1.10;;;;;6.10;94970.00;;;;7395578;19;20152;-73
2022/12/27 10:27:41;;;;;;;2.90;0.80;;;;;6.60;94978.00;;;;7398373;19;20137;-74
2022/12/27 10:30:20;;;;;;;1.47;0.80;;;;;6.20;94963.00;;;;7398237;19;20621;-74
2022/12/27 10:32:48;;;;;;;4.47;0.93;;;;;5.70;94972.00;;;;7397498;19;20145;-73
2022/12/27 10:35:18;;;;;;;2.93;0.93;;;;;6.50;94977.00;;;;7396956;19;20578;-74
2022/12/27 10:38:09;;;;;;;2.30;0.97;;;;;6.30;94963.00;;;;7397178;19;20144;-74
2022/12/27 10:40:45;;;;;;;3.47;1.30;;;;;6.40;94964.00;;;;7396729;19;20164;-74
2022/12/27 10:43:31;;;;;;;1.80;0.80;;;;;6.30;94963.00;;;;7397531;19;20147;-74
2022/12/27 10:46:12;;;;;;;4.87;0.90;;;;;7.40;94968.00;;;;7389908;19;20160;-74
2022/12/27 10:49:23;;;;;;;2.70;0.70;;;;;7.40;94967.00;;;;7390593;19;20500;-74
2022/12/27 10:51:57;;;;;;;2.57;0.83;;;;;6.80;94969.00;;;;7395886;19;20128;-74
2022/12/27 10:54:31;;;;;;;4.63;1.33;;;;;7.50;94970.00;;;;7396865;19;20141;-74
2022/12/27 10:57:26;;;;;;;5.33;1.30;;;;;7.80;94973.00;;;;7396963;19;20152;-74
2022/12/27 11:00:13;;;;;;;2.90;0.83;;;;;7.40;94979.00;;;;7394501;19;20160;-77
2022/12/27 11:02:52;;;;;;;3.07;1.00;;;;;7.10;94974.00;;;;7396240;19;20140;-74
2022/12/27 11:05:29;;;;;;;1.67;0.93;;;;;6.40;94977.00;;;;7396127;19;20149;-73
2022/12/27 11:08:00;;;;;;;2.97;0.90;;;;;6.40;94968.00;;;;7396470;19;20129;-73
2022/12/27 11:10:30;;;;;;;3.63;1.00;;;;;7.20;94972.00;;;;7398694;19;20611;-73
2022/12/27 11:13:15;;;;;;;4.60;1.30;;;;;6.60;94962.00;;;;7396738;19;20153;-73
2022/12/27 11:15:53;;;;;;;2.77;0.80;;;;;6.90;94958.00;;;;7396970;19;20140;-74
2022/12/27 11:18:30;;;;;;;3.47;1.13;;;;;7.20;94969.00;;;;7398102;19;20131;-74
2022/12/27 11:20:59;;;;;;;3.73;1.23;;;;;6.80;94972.00;;;;7396095;19;20159;-73
2022/12/27 11:23:45;;;;;;;3.17;1.03;;;;;7.80;94971.00;;;;7396536;19;20128;-74
2022/12/27 11:26:47;;;;;;;3.50;1.10;;;;;8.10;94960.00;;;;7392394;19;20157;-73
2022/12/27 11:29:23;;;;;;;4.83;0.90;;;;;8.60;94962.00;;;;7391452;19;20228;-73
2022/12/27 11:32:06;;;;;;;4.40;1.13;;;;;8.20;94959.00;;;;7394888;19;20170;-73
2022/12/27 11:34:49;;;;;;;3.15;1.13;;;;;9.10;94961.00;;;;7395416;19;20623;-73
2022/12/27 11:37:38;;;;;;;3.57;1.00;;;;;8.60;94967.00;;;;7395331;19;20155;-73
2022/12/27 11:40:29;;;;;;;2.83;0.90;;;;;8.40;94972.00;;;;7395104;19;20151;-73
2022/12/27 11:43:11;;;;;;;3.77;1.17;;;;;7.90;94974.00;;;;7393585;19;20159;-72
2022/12/27 11:45:48;;;;;;;4.13;1.10;;;;;8.00;94970.00;;;;7395365;19;20132;-72
2022/12/27 11:48:31;;;;;;;3.60;1.10;;;;;7.50;94982.00;;;;7395216;19;20167;-72
2022/12/27 11:51:16;;;;;;;8.03;1.10;;;;;7.20;94977.00;;;;7395045;19;20671;-72
2022/12/27 11:54:39;;;;;;;7.93;1.30;;;;;6.70;94985.00;;;;7395287;19;20652;-73
2022/12/27 11:57:44;;;;;;;5.53;1.13;;;;;6.20;94985.00;;;;7396864;19;20129;-73
2022/12/27 12:00:28;;;;;;;2.70;1.10;;;;;6.10;94981.00;;;;7392533;19;20487;-73
2022/12/27 12:03:52;;;;;;;1.40;0.70;;;;;6.50;94976.00;;;;7396208;19;20132;-73
2022/12/27 12:07:05;;;;;;;4.77;0.87;;;;;6.80;94973.00;;;;7394597;19;20140;-72
2022/12/27 12:09:54;;;;;;;3.83;1.27;;;;;7.10;94976.00;;;;7393550;19;20870;-71
2022/12/27 12:12:47;;;;;;;4.53;1.27;;;;;8.10;94972.00;;;;7393727;19;20189;-72
2022/12/27 12:15:32;;;;;;;2.40;1.37;;;;;9.10;94973.00;;;;7394296;19;20170;-71
2022/12/27 12:18:33;;;;;;;2.43;1.43;;;;;9.30;94967.00;;;;7395443;19;20473;-72
2022/12/27 12:21:12;;;;;;;5.90;1.30;;;;;9.90;94962.00;;;;7394341;19;20204;-72
2022/12/27 12:24:07;;;;;;;8.23;1.15;;;;;10.00;94975.00;;;;7394586;19;20200;-72
2022/12/27 12:27:08;;;;;;;2.47;0.65;;;;;9.80;94975.00;;;;7392925;19;20527;-73
2022/12/27 12:30:20;;;;;;;4.97;1.00;;;;;10.70;94967.00;;;;7393445;19;20143;-73
2022/12/27 12:33:06;;;;;;;3.05;0.90;;;;;10.10;94966.00;;;;7392409;19;20635;-71
2022/12/27 12:36:24;;;;;;;2.28;1.08;;;;;9.40;94977.00;;;;7392535;19;20149;-71
2022/12/27 12:39:02;;;;;;;4.22;1.35;;;;;9.10;94973.00;;;;7394625;19;20908;-71
2022/12/27 12:42:13;;;;;;;3.67;1.00;;;;;8.70;94981.00;;;;7395026;19;20129;-71
2022/12/27 12:45:08;;;;;;;1.60;1.00;;;;;7.60;94979.00;;;;7394923;19;20653;-72
2022/12/27 12:48:07;;;;;;;3.23;1.17;;;;;6.70;94994.00;;;;7393056;19;20781;-72
2022/12/27 12:51:02;;;;;;;5.70;0.90;;;;;6.60;94981.00;;;;7386725;19;20157;-71
2022/12/27 12:54:03;;;;;;;4.47;1.23;;;;;7.20;94986.00;;;;7396894;19;20184;-71
2022/12/27 12:56:57;;;;;;;5.90;1.23;;;;;7.30;94982.00;;;;7394697;19;20160;-71
2022/12/27 13:00:18;;;;;;;2.20;0.90;;;;;7.90;94975.00;;;;7396413;19;20143;-71
2022/12/27 13:03:00;;;;;;;4.10;0.87;;;;;9.00;94972.00;;;;7397419;19;20133;-71
2022/12/27 13:05:43;;;;;;;3.43;1.10;;;;;8.20;94973.00;;;;7396459;19;20132;-71
2022/12/27 13:08:29;;;;;;;4.03;0.90;;;;;7.90;94966.00;;;;7398022;19;20125;-71
2022/12/27 13:11:22;;;;;;;2.93;0.80;;;;;8.30;94971.00;;;;7396002;19;20148;-70
2022/12/27 13:14:08;;;;;;;2.03;0.80;;;;;7.10;94972.00;;;;7395954;19;20141;-71
2022/12/27 13:17:09;;;;;;;3.80;1.00;;;;;7.60;94976.00;;;;7396853;19;20615;-71
2022/12/27 13:20:09;;;;;;;3.97;1.03;;;;;7.80;94985.00;;;;7399100;19;20149;-71
2022/12/27 13:23:06;;;;;;;1.00;0.67;;;;;7.70;94978.00;;;;7396607;19;20607;-71
2022/12/27 13:25:42;;;;;;;2.20;0.90;;;;;7.50;94979.00;;;;7396193;19;20157;-71
2022/12/27 13:28:43;;;;;;;2.13;0.70;;;;;7.30;94980.00;;;;7396197;19;20137;-72
2022/12/27 13:31:39;;;;;;;4.90;1.30;;;;;6.80;94990.00;;;;7395514;19;20650;-71
2022/12/27 13:34:36;;;;;;;3.73;1.03;;;;;6.20;94986.00;;;;7394996;19;20144;-71
2022/12/27 13:37:35;;;;;;;3.97;0.97;;;;;6.20;94992.00;;;;7395299;19;20148;-71
2022/12/27 13:40:57;;;;;;;3.77;0.93;;;;;5.70;94980.00;;;;7397168;19;20148;-71
2022/12/27 13:43:57;;;;;;;4.67;1.37;;;;;5.60;94980.00;;;;7395191;19;20121;-70
2022/12/27 13:46:46;;;;;;;3.63;1.00;;;;;5.50;94978.00;;;;7395014;19;20166;-71
2022/12/27 13:49:43;;;;;;;3.53;1.20;;;;;5.70;94973.00;;;;7396425;19;20125;-71
2022/12/27 13:52:17;;;;;;;1.70;0.73;;;;;6.00;94971.00;;;;7402995;19;20212;-72
2022/12/27 13:55:01;;;;;;;2.80;1.10;;;;;6.10;94972.00;;;;7402492;19;20129;-71
2022/12/27 13:58:03;;;;;;;7.23;1.20;;;;;6.70;94969.00;;;;7404338;19;20855;-70
2022/12/27 14:01:08;;;;;;;2.20;0.83;;;;;6.50;94972.00;;;;7402067;19;20161;-72
2022/12/27 14:04:10;;;;;;;2.97;0.93;;;;;5.90;94967.00;;;;7402499;19;20626;-71
2022/12/27 14:07:10;;;;;;;3.10;0.90;;;;;5.80;94979.00;;;;7404542;19;20136;-71
2022/12/27 14:09:54;;;;;;;5.93;1.03;;;;;5.40;94982.00;;;;7400868;19;20204;-71
2022/12/27 14:12:27;;;;;;;8.27;1.23;;;;;5.30;94982.00;;;;7401794;19;20125;-71
2022/12/27 14:15:07;;;;;;;1.87;0.80;;;;;5.50;94970.00;;;;7400998;19;20160;-71
2022/12/27 14:17:48;;;;;;;4.07;0.90;;;;;5.30;94977.00;;;;7402519;19;20607;-71
2022/12/27 14:20:34;;;;;;;1.83;0.80;;;;;4.90;94969.00;;;;7403683;19;20575;-71
2022/12/27 14:23:35;;;;;;;3.40;0.90;;;;;4.60;94972.00;;;;7403457;19;20125;-71
2022/12/27 14:26:44;;;;;;;3.27;0.70;;;;;4.10;94980.00;;;;7402204;19;20626;-71
2022/12/27 14:29:50;;;;;;;1.33;0.87;;;;;3.90;94980.00;;;;7400912;19;20141;-72
2022/12/27 14:33:07;;;;;;;1.13;0.70;;;;;3.60;94989.00;;;;7400815;19;20137;-72
2022/12/27 14:36:10;;;;;;;1.90;0.87;;;;;3.50;94975.00;;;;7397996;19;20176;-71
2022/12/27 14:39:02;;;;;;;3.37;1.13;;;;;3.40;94981.00;;;;7401655;19;20153;-73
2022/12/27 14:42:07;;;;;;;4.10;1.23;;;;;3.30;94970.00;;;;7402013;19;20747;-71
2022/12/27 14:44:59;;;;;;;5.07;1.77;;;;;3.20;94973.00;;;;7401156;19;20596;-71
2022/12/27 14:47:48;;;;;;;3.00;1.60;;;;;3.10;94972.00;;;;7402000;19;20603;-71
2022/12/27 14:50:59;;;;;;;8.20;2.63;;;;;3.00;94970.00;;;;7395401;19;20152;-72
2022/12/27 14:54:04;;;;;;;6.33;1.70;;;;;2.90;94966.00;;;;7398645;19;20586;-71
2022/12/27 14:56:47;;;;;;;5.50;1.30;;;;;2.90;94958.00;;;;7400671;19;20179;-71
2022/12/27 14:59:42;;;;;;;2.40;1.20;;;;;2.70;94971.00;;;;7400027;19;20156;-72
2022/12/27 15:02:34;;;;;;;3.20;1.40;;;;;2.70;94969.00;;;;7400328;19;20169;-71
2022/12/27 15:05:26;;;;;;;2.57;1.50;;;;;2.30;94966.00;;;;7395876;19;20185;-72
2022/12/27 15:08:11;;;;;;;2.80;1.50;;;;;2.40;94968.00;;;;7395970;19;20153;-72
2022/12/27 15:11:05;;;;;;;2.80;1.63;;;;;2.50;94965.00;;;;7392697;19;20612;-72
2022/12/27 15:14:19;;;;;;;6.37;1.77;;;;;2.40;94962.00;;;;7391271;19;20156;-72
2022/12/27 15:16:54;;;;;;;4.87;1.47;;;;;2.30;94965.00;;;;7391568;19;20149;-73